Time;durP1;ratioP1;P1;durP2;ratioP2;P2;SDS_P1;SDS_P2;PMS_P1;PMS_P2;Temp;Humidity;BMP_temperature;BMP_pressure;BME280_temperature;BME280_humidity;BME280_pressure;Samples;Min_cycle;Max_cycle;Signal;HPM_P1;HPM_P2
2022/04/04 00:00:02;;;;;;;19.77;12.43;;;;;;;2.28;100.00;96474.31;5042999;28;20270;-82
2022/04/04 00:02:31;;;;;;;18.50;12.80;;;;;;;2.36;100.00;96474.25;5046645;28;20205;-82
2022/04/04 00:04:58;;;;;;;16.37;12.07;;;;;;;2.38;100.00;96469.59;5041725;28;20198;-82
2022/04/04 00:07:25;;;;;;;17.37;12.63;;;;;;;2.31;100.00;96467.78;5042433;28;20218;-82
2022/04/04 00:09:52;;;;;;;15.67;11.87;;;;;;;2.26;100.00;96468.31;5040354;28;20250;-81
2022/04/04 00:12:20;;;;;;;19.07;13.57;;;;;;;2.20;100.00;96461.88;5044569;28;20198;-82
2022/04/04 00:14:49;;;;;;;18.13;13.30;;;;;;;2.15;100.00;96460.72;5041938;28;20205;-82
2022/04/04 00:17:16;;;;;;;19.20;13.17;;;;;;;2.14;100.00;96461.72;5038501;28;20209;-82
2022/04/04 00:19:45;;;;;;;18.03;12.70;;;;;;;2.12;100.00;96461.91;5041870;28;20206;-82
2022/04/04 00:22:12;;;;;;;19.00;13.13;;;;;;;2.17;100.00;96470.22;5045120;28;20210;-82
2022/04/04 00:24:39;;;;;;;16.63;12.77;;;;;;;2.21;100.00;96468.84;5042055;28;20265;-82
2022/04/04 00:27:06;;;;;;;20.83;13.83;;;;;;;2.28;100.00;96469.81;5037479;28;20298;-82
2022/04/04 00:29:34;;;;;;;17.83;13.10;;;;;;;2.26;100.00;96471.81;5039487;28;20261;-82
2022/04/04 00:32:02;;;;;;;17.87;12.87;;;;;;;2.32;100.00;96469.44;5042568;28;20206;-82
2022/04/04 00:34:29;;;;;;;19.40;12.70;;;;;;;2.36;100.00;96474.25;5036135;28;20214;-82
2022/04/04 00:36:56;;;;;;;18.27;12.77;;;;;;;2.40;100.00;96466.72;5043790;28;20207;-82
2022/04/04 00:39:24;;;;;;;18.20;13.47;;;;;;;2.39;100.00;96454.41;5041147;28;20217;-82
2022/04/04 00:41:51;;;;;;;18.27;12.50;;;;;;;2.41;100.00;96465.72;5043882;28;20229;-82
2022/04/04 00:44:18;;;;;;;19.47;12.67;;;;;;;2.42;100.00;96472.72;5043360;28;20221;-82
2022/04/04 00:46:45;;;;;;;16.87;12.93;;;;;;;2.35;100.00;96461.94;5042151;28;20199;-82
2022/04/04 00:49:13;;;;;;;18.53;13.20;;;;;;;2.40;100.00;96462.22;5041661;28;20211;-82
2022/04/04 00:51:41;;;;;;;18.03;12.93;;;;;;;2.41;100.00;96463.91;5044903;28;20274;-82
2022/04/04 00:54:08;;;;;;;18.30;12.87;;;;;;;2.41;100.00;96450.56;5038961;28;20257;-82
2022/04/04 00:56:36;;;;;;;17.10;13.03;;;;;;;2.37;100.00;96449.28;5051653;28;20205;-82
2022/04/04 00:59:10;;;;;;;17.63;12.53;;;;;;;2.37;100.00;96445.78;5047070;28;20214;-82
2022/04/04 01:01:37;;;;;;;19.63;13.50;;;;;;;2.37;100.00;96451.13;5044501;28;20213;-82
2022/04/04 01:04:05;;;;;;;17.97;13.10;;;;;;;2.35;100.00;96445.94;5043205;28;20208;-82
2022/04/04 01:06:33;;;;;;;16.57;12.80;;;;;;;2.37;100.00;96449.28;5032072;28;20229;-82
2022/04/04 01:09:00;;;;;;;18.10;13.70;;;;;;;2.38;100.00;96444.78;5036976;28;20209;-82
2022/04/04 01:11:28;;;;;;;20.30;13.07;;;;;;;2.35;100.00;96435.28;5034642;28;20410;-82
2022/04/04 01:13:55;;;;;;;19.13;12.90;;;;;;;2.24;100.00;96425.88;5040216;28;20198;-82
2022/04/04 01:16:22;;;;;;;17.90;13.47;;;;;;;2.19;100.00;96430.91;5041428;28;20221;-82
2022/04/04 01:18:49;;;;;;;18.53;13.63;;;;;;;2.17;100.00;96429.41;5046555;28;20193;-82
2022/04/04 01:21:19;;;;;;;18.10;13.23;;;;;;;2.19;100.00;96420.25;5035460;28;20211;-82
2022/04/04 01:23:50;;;;;;;18.63;13.20;;;;;;;2.27;100.00;96424.69;5038765;28;20313;-82
2022/04/04 01:26:20;;;;;;;21.90;12.13;;;;;;;2.25;100.00;96416.03;5033443;28;20237;-82
2022/04/04 01:28:47;;;;;;;15.90;12.33;;;;;;;2.28;100.00;96415.69;5042229;28;20198;-82
2022/04/04 01:31:14;;;;;;;17.23;12.17;;;;;;;2.30;100.00;96419.00;5043056;28;20238;-82
2022/04/04 01:33:41;;;;;;;17.13;12.20;;;;;;;2.25;100.00;96416.88;5037950;28;20306;-82
2022/04/04 01:36:08;;;;;;;16.13;12.40;;;;;;;2.26;100.00;96420.38;5039918;28;20217;-82
2022/04/04 01:38:35;;;;;;;16.57;12.83;;;;;;;2.32;100.00;96416.97;5041531;28;20202;-82
2022/04/04 01:41:02;;;;;;;16.67;11.97;;;;;;;2.37;100.00;96413.81;5033107;28;21737;-82
2022/04/04 01:43:31;;;;;;;16.53;12.70;;;;;;;2.33;100.00;96407.16;5036892;28;20212;-82
2022/04/04 01:48:43;;;;;;;16.53;11.80;;;;;;;2.26;100.00;96407.88;5042517;28;20244;-82
2022/04/04 01:51:10;;;;;;;17.40;12.27;;;;;;;2.31;100.00;96414.50;5048018;28;20218;-82
2022/04/04 01:53:37;;;;;;;16.27;11.97;;;;;;;2.27;100.00;96406.88;5046087;28;20207;-82
2022/04/04 01:56:07;;;;;;;19.40;12.27;;;;;;;2.30;100.00;96420.84;5041829;28;20210;-82
2022/04/04 01:58:36;;;;;;;15.87;11.93;;;;;;;2.26;100.00;96423.03;5043021;28;20198;-82
2022/04/04 02:01:10;;;;;;;16.60;12.07;;;;;;;2.18;100.00;96415.94;5043215;28;20282;-82
2022/04/04 02:03:37;;;;;;;16.30;11.70;;;;;;;2.18;100.00;96421.25;5037222;28;20221;-82
2022/04/04 02:06:04;;;;;;;16.20;12.30;;;;;;;2.18;100.00;96415.09;5037387;28;20290;-82
2022/04/04 02:08:32;;;;;;;15.37;11.67;;;;;;;2.15;100.00;96408.28;5035840;28;20218;-82
2022/04/04 02:11:00;;;;;;;17.30;12.40;;;;;;;2.19;100.00;96406.09;5042547;28;20229;-82
2022/04/04 02:13:27;;;;;;;16.60;12.00;;;;;;;2.21;100.00;96409.44;5041593;28;20209;-82
2022/04/04 02:15:58;;;;;;;17.67;12.20;;;;;;;2.22;100.00;96421.72;5043124;28;20206;-82
2022/04/04 02:18:25;;;;;;;16.27;11.80;;;;;;;2.18;100.00;96418.59;5040506;28;20305;-82
2022/04/04 02:20:53;;;;;;;16.07;11.57;;;;;;;2.15;100.00;96416.28;5041304;28;20198;-82
2022/04/04 02:23:20;;;;;;;18.67;12.67;;;;;;;2.12;100.00;96407.81;5040251;28;20227;-82
2022/04/04 02:25:48;;;;;;;17.03;11.77;;;;;;;2.20;100.00;96416.59;5032473;28;20229;-82
2022/04/04 02:28:16;;;;;;;15.73;11.57;;;;;;;2.28;100.00;96419.19;5038634;28;20215;-82
2022/04/04 02:30:45;;;;;;;14.80;11.90;;;;;;;2.23;100.00;96418.03;5028308;28;20356;-82
2022/04/04 02:33:15;;;;;;;16.47;12.13;;;;;;;2.19;100.00;96417.59;5048889;28;20285;-82
2022/04/04 02:35:43;;;;;;;17.30;11.50;;;;;;;2.18;100.00;96415.09;5038499;28;20195;-82
2022/04/04 02:38:11;;;;;;;17.23;11.97;;;;;;;2.11;100.00;96414.97;5045038;28;20206;-82
2022/04/04 02:40:40;;;;;;;14.03;11.50;;;;;;;2.14;100.00;96421.75;5038494;28;20203;-82
2022/04/04 02:43:07;;;;;;;15.80;11.70;;;;;;;2.16;100.00;96423.25;5034032;28;20307;-82
2022/04/04 02:45:36;;;;;;;17.60;12.27;;;;;;;2.10;100.00;96418.63;5048079;28;20209;-82
2022/04/04 02:48:03;;;;;;;18.10;12.43;;;;;;;2.08;100.00;96425.97;5039883;28;20207;-82
2022/04/04 02:50:32;;;;;;;17.87;12.63;;;;;;;2.13;100.00;96426.25;5041703;28;20304;-82
2022/04/04 02:52:59;;;;;;;16.97;12.43;;;;;;;2.12;100.00;96424.63;5030890;28;20286;-82
2022/04/04 02:58:12;;;;;;;15.83;11.73;;;;;;;2.19;100.00;96428.25;5046503;28;20202;-82
2022/04/04 03:00:39;;;;;;;21.20;12.67;;;;;;;2.20;100.00;96424.56;5040211;28;20198;-83
2022/04/04 03:03:06;;;;;;;17.43;12.90;;;;;;;2.21;100.00;96426.22;5045197;28;20194;-82
2022/04/04 03:05:35;;;;;;;18.00;12.30;;;;;;;2.17;100.00;96427.59;5043155;28;20225;-82
2022/04/04 03:08:04;;;;;;;17.50;12.40;;;;;;;2.14;100.00;96419.09;5041911;28;20325;-82
2022/04/04 03:10:32;;;;;;;18.47;13.20;;;;;;;2.16;100.00;96430.41;5045286;28;20206;-82
2022/04/04 03:13:02;;;;;;;18.50;13.10;;;;;;;2.15;100.00;96426.91;5037988;28;20209;-82
2022/04/04 03:15:29;;;;;;;20.47;12.50;;;;;;;2.18;100.00;96423.09;5039040;28;20225;-82
2022/04/04 03:17:57;;;;;;;15.33;11.70;;;;;;;2.18;100.00;96418.59;5048797;28;20292;-82
2022/04/04 03:20:26;;;;;;;18.20;13.10;;;;;;;2.19;100.00;96408.75;5040842;28;20203;-83
2022/04/04 03:22:57;;;;;;;19.83;13.30;;;;;;;2.25;100.00;96426.69;5052801;28;20217;-82
2022/04/04 03:25:25;;;;;;;20.67;12.97;;;;;;;2.21;100.00;96420.88;5043759;28;20207;-82
2022/04/04 03:27:53;;;;;;;22.10;12.67;;;;;;;2.16;100.00;96427.75;5040393;28;20206;-82
2022/04/04 03:30:28;;;;;;;17.50;12.67;;;;;;;2.15;100.00;96428.75;5039425;28;20323;-82
2022/04/04 03:32:57;;;;;;;20.50;13.73;;;;;;;2.07;100.00;96416.31;5046503;28;20248;-82
2022/04/04 03:35:25;;;;;;;22.47;14.27;;;;;;;2.16;100.00;96428.59;5045176;28;20220;-82
2022/04/04 03:37:55;;;;;;;20.63;13.93;;;;;;;2.09;100.00;96424.97;5050112;28;20228;-82
2022/04/04 03:40:23;;;;;;;22.97;14.53;;;;;;;2.05;100.00;96420.16;5047247;28;20276;-82
2022/04/04 03:42:53;;;;;;;20.43;13.97;;;;;;;2.09;100.00;96424.97;5044059;28;20202;-82
2022/04/04 03:45:21;;;;;;;20.97;14.43;;;;;;;2.03;100.00;96425.69;5044145;28;20211;-82
2022/04/04 03:47:49;;;;;;;20.80;13.93;;;;;;;2.10;100.00;96426.63;5052391;28;20220;-82
2022/04/04 03:50:18;;;;;;;27.10;14.77;;;;;;;2.03;100.00;96425.69;5043416;28;20288;-83
2022/04/04 03:52:47;;;;;;;20.70;14.73;;;;;;;2.02;100.00;96426.69;5044020;28;20232;-82
2022/04/04 03:55:17;;;;;;;23.97;15.93;;;;;;;1.97;100.00;96423.69;5042507;28;20206;-82
2022/04/04 03:57:45;;;;;;;23.23;14.80;;;;;;;1.97;100.00;96413.03;5048343;28;20304;-82
2022/04/04 04:00:13;;;;;;;21.40;14.87;;;;;;;1.97;100.00;96415.72;5042296;28;20373;-82
2022/04/04 04:02:41;;;;;;;24.93;15.40;;;;;;;1.97;100.00;96413.03;5037784;28;20211;-82
2022/04/04 04:05:09;;;;;;;22.40;15.20;;;;;;;2.02;100.00;96413.38;5046855;28;20216;-82
2022/04/04 04:07:36;;;;;;;23.13;14.60;;;;;;;1.99;100.00;96416.38;5040941;28;20216;-82
2022/04/04 04:10:05;;;;;;;24.00;15.00;;;;;;;1.94;100.00;96418.75;5039448;28;20252;-82
2022/04/04 04:12:33;;;;;;;20.40;14.40;;;;;;;1.96;100.00;96418.56;5068335;28;20233;-82
2022/04/04 04:15:00;;;;;;;21.43;14.70;;;;;;;1.97;100.00;96412.22;5048725;28;20202;-82
2022/04/04 04:17:28;;;;;;;21.43;14.37;;;;;;;1.92;100.00;96410.09;5038866;28;20209;-83
2022/04/04 04:22:40;;;;;;;21.00;14.23;;;;;;;1.95;100.00;96409.75;5036892;28;20212;-82
2022/04/04 04:25:08;;;;;;;18.70;12.73;;;;;;;1.92;100.00;96410.09;5038733;28;20311;-82
2022/04/04 04:27:37;;;;;;;18.93;12.90;;;;;;;1.93;100.00;96402.94;5040926;28;20271;-83
2022/04/04 04:30:05;;;;;;;19.10;12.50;;;;;;;1.96;100.00;96408.72;5041654;28;20236;-82
2022/04/04 04:32:32;;;;;;;18.47;11.73;;;;;;;1.93;100.00;96402.94;5035406;28;20234;-83
2022/04/04 04:34:59;;;;;;;17.67;12.00;;;;;;;1.96;100.00;96406.06;5041375;28;20295;-83
2022/04/04 04:37:27;;;;;;;15.13;10.33;;;;;;;1.93;100.00;96406.44;5042680;28;20204;-82
2022/04/04 04:39:54;;;;;;;18.63;9.77;;;;;;;1.90;100.00;96402.28;5038797;28;20234;-82
2022/04/04 04:42:21;;;;;;;13.83;9.53;;;;;;;1.95;100.00;96407.09;5036797;28;20233;-82
2022/04/04 04:44:51;;;;;;;14.00;9.10;;;;;;;1.93;100.00;96401.09;5042629;28;20219;-83
2022/04/04 04:47:18;;;;;;;19.40;10.47;;;;;;;1.97;100.00;96402.41;5035452;28;20217;-82
2022/04/04 04:49:48;;;;;;;17.57;9.53;;;;;;;1.98;100.00;96398.72;5046125;28;20194;-82
2022/04/04 04:52:15;;;;;;;14.73;9.60;;;;;;;2.03;100.00;96401.72;5043511;28;20240;-83
2022/04/04 04:54:44;;;;;;;15.87;9.40;;;;;;;1.99;100.00;96405.72;5042589;28;20210;-83
2022/04/04 04:57:11;;;;;;;14.70;9.30;;;;;;;2.02;100.00;96405.38;5048625;28;20301;-83
2022/04/04 04:59:38;;;;;;;15.87;9.60;;;;;;;2.00;99.84;96412.72;5043108;28;20276;-82
2022/04/04 05:02:07;;;;;;;16.43;9.80;;;;;;;1.98;99.07;96413.88;5038505;28;20221;-82
2022/04/04 05:04:34;;;;;;;19.53;9.97;;;;;;;1.96;99.93;96419.38;5043316;28;20240;-82
2022/04/04 05:07:01;;;;;;;19.40;9.70;;;;;;;2.05;99.16;96420.16;5045434;28;20267;-82
2022/04/04 05:09:29;;;;;;;16.10;9.83;;;;;;;2.01;97.89;96422.34;5046738;28;20200;-82
2022/04/04 05:11:56;;;;;;;13.83;9.43;;;;;;;2.02;98.33;96417.88;5041960;28;20226;-82
2022/04/04 05:14:23;;;;;;;12.30;8.50;;;;;;;2.05;98.16;96418.31;5046046;28;20208;-83
2022/04/04 05:16:50;;;;;;;13.17;8.97;;;;;;;2.00;97.95;96420.69;5046204;28;20214;-82
2022/04/04 05:19:19;;;;;;;16.33;9.10;;;;;;;1.98;97.88;96414.72;5032998;28;20278;-83
2022/04/04 05:21:47;;;;;;;14.73;8.90;;;;;;;1.96;97.83;96426.56;5043421;28;20201;-82
2022/04/04 05:24:14;;;;;;;11.20;8.07;;;;;;;1.93;98.00;96425.06;5039301;28;20232;-82
2022/04/04 05:26:41;;;;;;;11.17;8.13;;;;;;;1.93;98.11;96432.22;5043519;28;20300;-82
2022/04/04 05:29:09;;;;;;;11.77;8.00;;;;;;;1.97;96.91;96431.69;5040926;28;20309;-82
2022/04/04 05:31:37;;;;;;;10.90;7.83;;;;;;;1.94;96.27;96428.56;5042828;28;20218;-82
2022/04/04 05:34:05;;;;;;;14.73;7.90;;;;;;;1.92;97.12;96436.72;5028980;28;20206;-82
2022/04/04 05:36:34;;;;;;;12.63;8.13;;;;;;;1.91;96.27;96435.06;5038715;28;20223;-82
2022/04/04 05:39:02;;;;;;;11.47;8.13;;;;;;;1.98;95.57;96446.66;5045219;28;20208;-82
2022/04/04 05:41:29;;;;;;;12.50;7.50;;;;;;;1.97;94.02;96441.50;5036985;28;20264;-82
2022/04/04 05:43:57;;;;;;;17.10;8.10;;;;;;;2.01;94.60;96449.00;5041960;28;20206;-82
2022/04/04 05:46:25;;;;;;;10.87;8.13;;;;;;;2.07;94.84;96448.28;5035877;28;20215;-82
2022/04/04 05:48:52;;;;;;;12.43;7.43;;;;;;;2.13;94.51;96450.22;5042579;28;20199;-82
2022/04/04 05:51:19;;;;;;;10.03;7.43;;;;;;;2.20;94.18;96455.72;5049907;28;20204;-82
2022/04/04 05:53:48;;;;;;;12.27;8.50;;;;;;;2.22;94.56;96459.00;5040506;28;20231;-82
2022/04/04 05:56:15;;;;;;;10.67;8.23;;;;;;;2.17;94.15;96461.38;5042219;28;20281;-82
2022/04/04 05:58:42;;;;;;;11.57;8.23;;;;;;;2.18;94.83;96460.38;5038192;28;20210;-82
2022/04/04 06:01:09;;;;;;;11.20;7.37;;;;;;;2.26;95.89;96463.81;5039275;28;20268;-82
2022/04/04 06:03:37;;;;;;;10.03;7.67;;;;;;;2.25;95.43;96448.00;5040988;28;20206;-82
2022/04/04 06:06:04;;;;;;;11.17;7.70;;;;;;;2.31;95.13;96459.78;5037607;28;20206;-82
2022/04/04 06:08:31;;;;;;;12.03;6.70;;;;;;;2.37;94.30;96457.28;5037971;28;20210;-82
2022/04/04 06:11:00;;;;;;;8.87;6.70;;;;;;;2.40;93.26;96451.56;5041272;28;20190;-82
2022/04/04 06:13:27;;;;;;;13.73;7.80;;;;;;;2.39;91.53;96443.75;5039526;28;20291;-82
2022/04/04 06:15:54;;;;;;;9.53;7.40;;;;;;;2.34;91.11;96451.47;5036102;28;20229;-82
2022/04/04 06:18:21;;;;;;;10.50;7.07;;;;;;;2.26;89.33;96452.34;5034759;28;20210;-82
2022/04/04 06:20:49;;;;;;;10.20;7.63;;;;;;;2.26;87.10;96457.66;5035403;28;20197;-82
2022/04/04 06:23:16;;;;;;;8.57;6.23;;;;;;;2.26;86.59;96449.66;5037381;28;20339;-82
2022/04/04 06:25:48;;;;;;;8.07;6.00;;;;;;;2.28;84.88;96463.66;5036297;28;20210;-82
2022/04/04 06:28:17;;;;;;;9.07;6.30;;;;;;;2.26;84.95;96452.34;5040254;28;20230;-82
2022/04/04 06:30:44;;;;;;;8.43;6.37;;;;;;;2.30;84.33;96463.47;5042731;28;20341;-82
2022/04/04 06:33:11;;;;;;;7.50;6.00;;;;;;;2.26;82.49;96457.66;5032517;28;20226;-82
2022/04/04 06:35:38;;;;;;;8.80;5.80;;;;;;;2.14;80.76;96457.22;5042418;28;20217;-82
2022/04/04 06:38:06;;;;;;;7.53;5.90;;;;;;;2.23;80.86;96461.50;5038241;28;20212;-82
2022/04/04 06:40:33;;;;;;;7.43;5.87;;;;;;;2.26;81.19;96460.34;5038716;28;20269;-82
2022/04/04 06:43:00;;;;;;;7.30;5.17;;;;;;;2.29;80.52;96470.66;5047796;28;20208;-82
2022/04/04 06:45:28;;;;;;;8.93;6.40;;;;;;;2.35;81.14;96463.78;5039525;28;20205;-82
2022/04/04 06:47:55;;;;;;;7.30;5.47;;;;;;;2.44;80.52;96468.88;5040385;28;20206;-82
2022/04/04 06:50:23;;;;;;;7.10;5.33;;;;;;;2.50;80.69;96462.00;5038682;28;20211;-82
2022/04/04 06:52:52;;;;;;;7.77;5.60;;;;;;;2.44;80.13;96462.72;5049481;28;20317;-82
2022/04/04 06:55:20;;;;;;;7.50;5.70;;;;;;;2.37;80.06;96457.28;5042280;28;20213;-82
2022/04/04 06:57:47;;;;;;;8.03;6.00;;;;;;;2.43;80.39;96469.06;5041572;28;20291;-82
2022/04/04 07:00:16;;;;;;;8.37;5.97;;;;;;;2.49;78.86;96463.00;5037383;28;20197;-82
2022/04/04 07:02:45;;;;;;;7.53;5.47;;;;;;;2.50;79.14;96470.81;5033719;28;20256;-82
2022/04/04 07:05:12;;;;;;;7.23;5.33;;;;;;;2.57;78.07;96468.28;5042814;28;20203;-82
2022/04/04 07:07:39;;;;;;;9.00;6.23;;;;;;;2.57;78.61;96460.28;5049689;28;20301;-82
2022/04/04 07:10:07;;;;;;;10.63;6.37;;;;;;;2.54;79.14;96465.97;5037458;28;20201;-82
2022/04/04 07:12:34;;;;;;;7.87;5.87;;;;;;;2.66;79.26;96477.88;5041392;28;20324;-82
2022/04/04 07:15:02;;;;;;;7.63;5.73;;;;;;;2.68;78.40;96465.19;5050097;28;20283;-82
2022/04/04 07:17:30;;;;;;;8.43;6.00;;;;;;;2.63;76.74;96463.09;5044981;28;20208;-82
2022/04/04 07:19:58;;;;;;;10.07;7.13;;;;;;;2.66;76.40;96468.03;5036927;28;20210;-82
2022/04/04 07:22:25;;;;;;;9.37;6.90;;;;;;;2.69;76.16;96468.69;5051036;28;20202;-82
2022/04/04 07:24:52;;;;;;;10.47;7.47;;;;;;;2.70;76.73;96471.19;5038190;28;20214;-82
2022/04/04 07:27:19;;;;;;;9.50;7.03;;;;;;;2.87;77.22;96474.56;5038747;28;20210;-82
2022/04/04 07:29:46;;;;;;;7.60;5.80;;;;;;;2.95;76.18;96469.16;5041763;28;20258;-82
2022/04/04 07:32:14;;;;;;;8.57;6.10;;;;;;;2.98;75.94;96472.28;5039559;28;20230;-82
2022/04/04 07:34:41;;;;;;;8.23;6.07;;;;;;;3.06;76.55;96473.25;5047665;28;20203;-82
2022/04/04 07:37:09;;;;;;;7.53;5.93;;;;;;;3.07;76.10;96470.38;5042198;28;20234;-82
2022/04/04 07:39:36;;;;;;;8.60;6.27;;;;;;;3.04;77.69;96476.09;5045202;28;20202;-82
2022/04/04 07:42:05;;;;;;;10.90;6.30;;;;;;;2.93;76.32;96474.66;5048078;28;20202;-82
2022/04/04 07:44:33;;;;;;;7.63;5.80;;;;;;;3.11;76.09;96484.19;5044548;28;20510;-82
2022/04/04 07:47:00;;;;;;;7.77;5.93;;;;;;;3.14;75.98;96481.16;5043207;28;20218;-82
2022/04/04 07:49:27;;;;;;;8.60;6.13;;;;;;;3.25;76.53;96484.22;5044570;28;20202;-82
2022/04/04 07:51:54;;;;;;;7.77;6.10;;;;;;;3.33;75.09;96485.97;5036935;28;20581;-82
2022/04/04 07:54:23;;;;;;;8.33;5.70;;;;;;;3.54;74.59;96486.09;5042564;28;20203;-82
2022/04/04 07:56:53;;;;;;;6.23;5.53;;;;;;;3.63;73.08;96481.50;5039413;28;20264;-82
2022/04/04 07:59:20;;;;;;;7.47;5.67;;;;;;;3.70;72.51;96495.75;5041625;28;20214;-82
2022/04/04 08:01:48;;;;;;;9.87;5.97;;;;;;;3.89;72.91;96499.72;5041631;28;20207;-82
2022/04/04 08:04:15;;;;;;;9.63;7.13;;;;;;;4.02;74.62;96491.88;5034265;28;20260;-82
2022/04/04 08:06:42;;;;;;;8.83;6.73;;;;;;;4.11;76.75;96486.25;5052713;28;20267;-82
2022/04/04 08:09:09;;;;;;;12.93;7.47;;;;;;;4.28;76.02;96486.84;5040343;28;20249;-82
2022/04/04 08:11:38;;;;;;;11.50;8.43;;;;;;;4.41;77.68;96491.56;5045617;28;20270;-82
2022/04/04 08:14:08;;;;;;;11.67;8.50;;;;;;;4.46;79.51;96492.63;5042962;28;20223;-81
2022/04/04 08:16:35;;;;;;;10.97;8.50;;;;;;;4.46;80.35;96487.28;5043192;28;20195;-81
2022/04/04 08:19:03;;;;;;;14.23;9.13;;;;;;;4.43;79.89;96478.78;5038034;28;20281;-81
2022/04/04 08:21:30;;;;;;;12.23;9.47;;;;;;;4.51;78.82;96489.38;5037351;28;20205;-81
2022/04/04 08:23:58;;;;;;;11.40;8.57;;;;;;;4.51;79.23;96481.34;5042781;28;20222;-81
2022/04/04 08:26:25;;;;;;;10.37;7.93;;;;;;;4.51;77.88;96481.34;5043014;28;20225;-82
2022/04/04 08:28:53;;;;;;;13.17;9.17;;;;;;;4.57;79.41;96489.47;5039620;28;20316;-81
2022/04/04 08:31:20;;;;;;;11.60;9.13;;;;;;;4.54;80.43;96481.81;5040987;28;20226;-82
2022/04/04 08:33:48;;;;;;;14.47;10.47;;;;;;;4.62;84.14;96482.72;5032492;28;20218;-81
2022/04/04 08:36:16;;;;;;;15.83;10.87;;;;;;;4.60;86.25;96476.72;5033576;28;20225;-81
2022/04/04 08:38:43;;;;;;;14.37;11.20;;;;;;;4.62;86.78;96478.19;5036878;28;20195;-81
2022/04/04 08:44:11;;;;;;;15.03;11.00;;;;;;;4.63;86.61;96481.69;5079137;27;20577;-81
2022/04/04 08:46:39;;;;;;;13.60;10.10;;;;;;;4.47;86.97;96478.25;5070141;28;20216;-81
2022/04/04 08:49:08;;;;;;;14.13;10.50;;;;;;;4.38;87.22;96482.06;5072744;28;20221;-83
2022/04/04 08:51:35;;;;;;;17.97;11.33;;;;;;;4.30;87.38;96484.84;5078394;28;20211;-81
2022/04/04 08:54:03;;;;;;;14.23;11.30;;;;;;;4.36;87.52;96483.25;5074678;28;20225;-82
2022/04/04 08:56:31;;;;;;;13.73;10.80;;;;;;;4.50;87.43;96483.22;5073829;28;20189;-82
2022/04/04 08:58:59;;;;;;;15.87;11.20;;;;;;;4.69;86.24;96475.56;5078186;28;20205;-82
2022/04/04 09:01:28;;;;;;;12.80;10.43;;;;;;;5.06;83.74;96479.84;5071775;28;20212;-82
2022/04/04 09:04:13;;;;;;;12.77;9.97;;;;;;;5.20;81.47;96478.94;5066247;28;20240;-82
2022/04/04 09:06:48;;;;;;;15.83;10.37;;;;;;;5.32;82.54;96475.53;5074625;28;20231;-83
2022/04/04 09:09:19;;;;;;;12.83;9.33;;;;;;;5.52;81.32;96474.88;5075423;28;20200;-83
2022/04/04 09:11:52;;;;;;;12.70;10.13;;;;;;;5.66;81.95;96468.56;5071418;28;20240;-82
2022/04/04 09:14:24;;;;;;;16.80;10.40;;;;;;;6.04;80.95;96461.78;5076569;28;20208;-83
2022/04/04 09:16:57;;;;;;;13.27;10.53;;;;;;;6.46;78.31;96457.22;5108257;28;20227;-84
2022/04/04 09:19:32;;;;;;;13.00;10.10;;;;;;;6.89;75.62;96456.91;5099120;28;20216;-83
2022/04/04 09:22:05;;;;;;;13.90;10.00;;;;;;;6.58;74.60;96447.53;5071961;28;20291;-83
2022/04/04 09:24:46;;;;;;;14.37;10.83;;;;;;;6.60;76.10;96455.41;5076159;28;20221;-83
2022/04/04 09:27:21;;;;;;;13.90;10.50;;;;;;;6.22;72.95;96434.44;5072668;28;20205;-82
2022/04/04 09:29:50;;;;;;;12.47;9.60;;;;;;;5.64;74.52;96441.13;5065370;28;20237;-82
2022/04/04 09:32:18;;;;;;;11.77;9.20;;;;;;;6.26;76.64;96441.06;5065864;28;20202;-82
2022/04/04 09:35:02;;;;;;;13.07;10.27;;;;;;;7.00;73.05;96434.81;5072864;28;20235;-82
2022/04/04 09:37:31;;;;;;;13.80;9.23;;;;;;;7.37;67.26;96428.81;5074563;28;20205;-83
2022/04/04 09:40:06;;;;;;;10.70;9.13;;;;;;;7.81;67.97;96417.38;5071516;28;20326;-82
2022/04/04 09:42:33;;;;;;;11.07;8.93;;;;;;;7.97;64.21;96426.84;5068287;28;20261;-82
2022/04/04 09:45:04;;;;;;;11.40;8.50;;;;;;;7.58;63.77;96417.81;5079036;28;20190;-83
2022/04/04 09:47:51;;;;;;;11.57;8.97;;;;;;;7.83;66.26;96404.53;5083074;28;20212;-83
2022/04/04 09:50:37;;;;;;;10.17;8.13;;;;;;;8.38;62.94;96404.13;5071852;28;20202;-83
2022/04/04 09:53:06;;;;;;;12.07;8.60;;;;;;;8.62;60.07;96395.28;5070356;28;20213;-83
2022/04/04 09:55:36;;;;;;;13.53;9.87;;;;;;;8.61;60.42;96382.88;5052375;28;20264;-83
2022/04/04 09:58:05;;;;;;;13.30;8.77;;;;;;;8.52;59.67;96389.56;5052758;28;20206;-83
2022/04/04 10:00:35;;;;;;;10.07;8.13;;;;;;;8.50;61.09;96386.28;5058235;28;20206;-83
2022/04/04 10:03:05;;;;;;;9.43;7.90;;;;;;;8.37;61.04;96383.66;5058893;28;20221;-83
2022/04/04 10:05:32;;;;;;;10.63;8.27;;;;;;;8.48;62.19;96377.59;5056319;28;20316;-83
2022/04/04 10:08:01;;;;;;;9.50;7.50;;;;;;;8.82;58.52;96379.84;5064913;28;20255;-83
2022/04/04 10:10:31;;;;;;;10.50;7.70;;;;;;;8.59;59.28;96376.91;5058944;28;20217;-82
2022/04/04 10:13:00;;;;;;;9.50;8.50;;;;;;;8.12;62.90;96375.47;5068868;28;20210;-82
2022/04/04 10:15:28;;;;;;;11.17;8.93;;;;;;;8.59;60.86;96376.91;5065127;28;20213;-83
2022/04/04 10:17:56;;;;;;;10.10;8.17;;;;;;;9.09;60.91;96370.50;5058519;28;20230;-83
2022/04/04 10:20:25;;;;;;;9.43;8.30;;;;;;;8.97;60.11;96366.88;5050422;28;20209;-82
2022/04/04 10:22:55;;;;;;;10.03;8.23;;;;;;;9.38;60.58;96358.22;5058075;28;20228;-83
2022/04/04 10:25:26;;;;;;;11.33;8.30;;;;;;;9.67;57.70;96353.16;5059736;28;20221;-83
2022/04/04 10:27:53;;;;;;;9.67;7.90;;;;;;;9.79;55.49;96354.88;5055970;28;20216;-83
2022/04/04 10:30:34;;;;;;;10.13;8.27;;;;;;;9.95;57.28;96348.06;5061037;28;20256;-83
2022/04/04 10:33:01;;;;;;;9.87;7.77;;;;;;;9.86;56.27;96342.16;5064581;28;20206;-82
2022/04/04 10:35:32;;;;;;;9.67;8.07;;;;;;;9.97;55.61;96339.72;5067927;28;20288;-83
2022/04/04 10:38:05;;;;;;;10.00;7.90;;;;;;;9.79;55.94;96344.06;5050035;28;20205;-84
2022/04/04 10:40:34;;;;;;;11.20;8.80;;;;;;;9.56;56.99;96341.22;5064354;28;20433;-83
2022/04/04 10:43:20;;;;;;;10.30;8.83;;;;;;;9.78;57.68;96341.63;5056326;28;20237;-83
2022/04/04 10:45:53;;;;;;;11.23;8.60;;;;;;;9.72;57.19;96337.94;5059403;28;20225;-83
2022/04/04 10:48:27;;;;;;;9.50;8.47;;;;;;;10.04;55.71;96340.47;5069948;28;20268;-83
2022/04/04 10:50:55;;;;;;;11.03;8.60;;;;;;;9.77;57.16;96327.31;5058972;28;20210;-83
2022/04/04 10:53:44;;;;;;;10.87;7.87;;;;;;;10.03;55.36;96333.44;5054247;28;20198;-82
2022/04/04 10:56:17;;;;;;;10.13;8.60;;;;;;;9.98;57.04;96327.88;5058131;28;20320;-84
2022/04/04 10:58:47;;;;;;;12.53;8.50;;;;;;;10.06;56.37;96319.47;5056355;28;20206;-84
2022/04/04 11:01:18;;;;;;;8.73;7.83;;;;;;;10.23;53.86;96317.81;5051640;28;20244;-84
2022/04/04 11:04:01;;;;;;;10.93;8.90;;;;;;;9.91;55.30;96319.88;5074032;28;20225;-84
2022/04/04 11:09:32;;;;;;;9.40;7.87;;;;;;;9.69;55.06;96300.66;5060844;28;20210;-84
2022/04/04 11:12:12;;;;;;;9.83;7.93;;;;;;;9.57;55.41;96307.03;5053201;28;20218;-84
2022/04/04 11:14:46;;;;;;;11.83;7.43;;;;;;;10.01;51.90;96303.16;5055591;28;20209;-84
2022/04/04 11:17:23;;;;;;;8.47;7.17;;;;;;;10.23;52.63;96297.06;5050791;28;20256;-84
2022/04/04 11:19:53;;;;;;;8.50;7.10;;;;;;;10.30;52.07;96302.34;5062060;28;20221;-84
2022/04/04 11:22:23;;;;;;;10.90;7.70;;;;;;;10.37;54.74;96296.88;5058706;28;20286;-84
2022/04/04 11:24:53;;;;;;;10.07;7.90;;;;;;;10.83;52.36;96296.97;5051382;28;20232;-84
2022/04/04 11:27:21;;;;;;;9.13;8.17;;;;;;;10.74;52.35;96292.16;5047897;28;20202;-84
2022/04/04 11:29:48;;;;;;;9.33;7.90;;;;;;;10.58;51.97;96280.97;5053735;28;20210;-84
2022/04/04 11:32:24;;;;;;;8.80;7.90;;;;;;;10.78;51.94;96279.84;5060338;28;20296;-84
2022/04/04 11:34:55;;;;;;;10.77;8.83;;;;;;;10.78;52.17;96271.72;5052629;28;20209;-84
2022/04/04 11:37:26;;;;;;;8.47;7.47;;;;;;;10.86;54.00;96274.09;5061209;28;20209;-84
2022/04/04 11:40:03;;;;;;;9.33;7.43;;;;;;;10.98;51.62;96277.59;5075355;28;20300;-84
2022/04/04 11:42:31;;;;;;;10.43;7.90;;;;;;;10.22;53.33;96267.59;5054957;28;20244;-84
2022/04/04 11:44:59;;;;;;;11.00;8.20;;;;;;;10.04;52.22;96270.31;5062793;28;20213;-84
2022/04/04 11:47:27;;;;;;;11.83;7.90;;;;;;;10.23;51.55;96261.16;5052313;28;20212;-84